Terminal Aerodrome Forecast
Issued by NWS

Home | Current Version | Previous Version | Text Only | Print | Product List | Glossary On
Versions: 1 2 3 4 5 6 7 8 9 10 11 12 13 14 15 16 17
010
FTUS43 KDTX 281722
TAFDET
TAF
KDET 281722Z 2818/2918 20011G20KT P6SM BKN045 BKN100
      TEMPO 2818/2821 3SM TSRA BKN035CB
     FM282300 20006KT P6SM SCT100 BKN200
     FM291500 19012KT P6SM BKN050 BKN250=

USA.gov is the U.S. government's official web portal to all federal, state and local government web resources and services.